Search for airport 
image banner adimage banner adimage banner ad
image banner ad

7CL1 - Children's Hospital Oakland

Located in Oakland, United States

ICAO - 7CL1, IATA -

Data provided by Airmate  

General information

Coordinates: N37°50'10" W122°16'0"
Elevation is 134 feet MSL.
Magnetic variation is 16° East
View others Airports in California

Operational data

Special qualification required
Current time UTC:
Current local time:
Weather at : KOAK - Metropolitan Oakland Intl ( 13 km )
METAR: KOAK 210853Z 31007KT 10SM FEW008 BKN011 OVC017 15/13 A2990 RMK AO2 SLP123 T01500128 55001
TAF: KOAK 210541Z 2106/2212 30011KT P6SM BKN008 FM210900 29007KT P6SM OVC008 FM211630 29005KT P6SM BKN010 FM211800 28011KT P6SM SCT012 FM212100 30014KT P6SM FEW200 FM220300 30010KT P6SM FEW010 FM221000 29007KT P6SM BKN015
View NOTAMs / SUP AIP / TFR affecting this airport [VIEW]
Communications frequencies: [VIEW]

Runways:

Airport contact information

Address: Oakland United States

Satellite view of 7CL1